createdAt,value
2022-08-07T00:02:35.409Z,57.33
2022-08-07T00:04:24.691Z,58.95
2022-08-07T00:07:01.406Z,51.83
2022-08-07T00:09:44.503Z,52.58
2022-08-07T00:12:28.382Z,53.13
2022-08-07T00:15:02.477Z,56.05
2022-08-07T00:17:38.124Z,49.05
2022-08-07T00:20:15.652Z,51.92
2022-08-07T00:23:03.332Z,59.72
2022-08-07T00:25:43.807Z,55.35
2022-08-07T00:28:26.071Z,51.42
2022-08-07T00:31:12.803Z,50.95
2022-08-07T00:33:51.719Z,56.10
2022-08-07T00:36:25.309Z,50.05
2022-08-07T00:39:02.871Z,56.30
2022-08-07T00:41:45.341Z,62.35
2022-08-07T00:44:27.437Z,55.65
2022-08-07T00:47:01.558Z,59.10
2022-08-07T00:50:19.249Z,61.03
2022-08-07T00:52:28.734Z,58.13
2022-08-07T00:55:10.595Z,61.30
2022-08-07T00:57:55.735Z,62.22
2022-08-07T01:00:30.082Z,63.75
2022-08-07T01:03:05.452Z,61.78
2022-08-07T01:05:41.309Z,66.43
2022-08-07T01:08:25.694Z,67.00
2022-08-07T01:13:55.631Z,65.60
2022-08-07T01:16:30.981Z,57.67
2022-08-07T01:19:18.570Z,67.40
2022-08-07T01:21:58.924Z,65.72
2022-08-07T01:24:51.200Z,62.95
2022-08-07T01:27:32.376Z,63.45
2022-08-07T01:30:08.712Z,76.40
2022-08-07T01:32:45.304Z,66.93
2022-08-07T01:35:20.039Z,65.35
2022-08-07T01:38:03.472Z,58.15
2022-08-07T01:40:38.776Z,58.63
2022-08-07T01:43:13.925Z,67.07
2022-08-07T01:45:48.913Z,59.75
2022-08-07T01:48:31.158Z,63.60
2022-08-07T01:51:24.205Z,60.72
2022-08-07T01:54:11.994Z,54.78
2022-08-07T01:57:09.621Z,53.50
2022-08-07T02:00:12.802Z,56.78
2022-08-07T02:03:19.302Z,63.42
2022-08-07T02:05:59.768Z,62.28
2022-08-07T02:08:42.470Z,64.68
2022-08-07T02:11:31.113Z,72.75
2022-08-07T02:14:35.496Z,70.93
2022-08-07T02:17:07.661Z,66.45
2022-08-07T02:20:04.432Z,79.13
2022-08-07T02:26:26.581Z,66.38
2022-08-07T02:28:49.146Z,67.32
2022-08-07T02:31:29.198Z,70.22
2022-08-07T02:34:11.636Z,73.22
2022-08-07T02:36:59.450Z,65.03
2022-08-07T02:40:01.642Z,62.05
2022-08-07T02:42:30.061Z,69.53
2022-08-07T02:45:57.491Z,74.78
2022-08-07T02:48:01.988Z,65.00
2022-08-07T02:50:49.849Z,72.32
2022-08-07T02:53:28.667Z,71.95
2022-08-07T02:56:24.469Z,70.45
2022-08-07T02:59:11.750Z,73.00
2022-08-07T03:01:51.997Z,76.70
2022-08-07T03:07:21.495Z,81.60
2022-08-07T03:10:14.542Z,79.38
2022-08-07T03:12:51.863Z,72.85
2022-08-07T03:15:48.001Z,66.18
2022-08-07T03:18:34.257Z,65.93
2022-08-07T03:21:11.776Z,66.72
2022-08-07T03:24:26.985Z,73.97
2022-08-07T03:27:09.314Z,68.57
2022-08-07T03:29:51.796Z,76.18
2022-08-07T03:32:35.101Z,71.90
2022-08-07T03:35:18.345Z,69.20
2022-08-07T03:37:57.386Z,68.60
2022-08-07T03:40:37.354Z,60.95
2022-08-07T03:43:26.562Z,61.83
2022-08-07T03:46:03.528Z,64.30
2022-08-07T03:49:02.207Z,61.45
2022-08-07T03:51:55.325Z,59.50
2022-08-07T03:54:54.331Z,53.75
2022-08-07T03:58:35.151Z,50.30
2022-08-07T04:00:29.153Z,50.90
2022-08-07T04:03:05.353Z,45.50
2022-08-07T04:05:45.549Z,45.03
2022-08-07T04:08:43.424Z,43.15
2022-08-07T04:12:23.945Z,41.47
2022-08-07T04:14:38.645Z,39.13
2022-08-07T04:17:20.009Z,31.63
2022-08-07T04:20:01.801Z,30.50
2022-08-07T04:22:38.945Z,29.50
2022-08-07T04:25:29.999Z,27.88
2022-08-07T04:28:13.260Z,30.92
2022-08-07T04:30:57.137Z,32.15
2022-08-07T04:33:40.848Z,34.70
2022-08-07T04:36:15.823Z,33.35
2022-08-07T04:38:57.415Z,35.08
2022-08-07T04:41:36.872Z,37.67
2022-08-07T04:44:18.846Z,33.72
2022-08-07T04:47:08.212Z,40.15
2022-08-07T04:49:58.001Z,33.78
2022-08-07T04:52:57.697Z,34.17
2022-08-07T04:58:24.122Z,28.67
2022-08-07T04:59:17.442Z,31.65
2022-08-07T05:01:45.743Z,31.40
2022-08-07T05:04:36.100Z,32.75
2022-08-07T05:07:27.594Z,30.58
2022-08-07T05:10:10.972Z,32.45
2022-08-07T05:12:58.500Z,31.90
2022-08-07T05:15:42.972Z,31.02
2022-08-07T05:18:26.673Z,29.75
2022-08-07T05:21:10.886Z,31.45
2022-08-07T05:23:51.923Z,33.88
2022-08-07T05:26:30.301Z,30.92
2022-08-07T05:29:14.555Z,28.40
2022-08-07T05:31:53.156Z,28.85
2022-08-07T05:34:34.525Z,29.75
2022-08-07T05:37:12.798Z,30.92
2022-08-07T05:40:14.418Z,32.97
2022-08-07T05:42:56.158Z,28.95
2022-08-07T05:45:47.673Z,31.27
2022-08-07T05:48:30.886Z,33.17
2022-08-07T05:51:10.448Z,33.38
2022-08-07T05:54:13.828Z,32.88
2022-08-07T05:56:41.516Z,32.75
2022-08-07T05:59:21.723Z,33.17
2022-08-07T06:02:22.499Z,30.45
2022-08-07T06:05:17.116Z,36.10
2022-08-07T06:08:14.172Z,33.22
2022-08-07T06:10:54.925Z,35.40
2022-08-07T06:16:18.150Z,34.88
2022-08-07T06:18:55.770Z,30.23
2022-08-07T06:22:16.075Z,31.02
2022-08-07T06:24:45.378Z,32.70
2022-08-07T06:28:00.185Z,36.53
2022-08-07T06:30:37.185Z,35.35
2022-08-07T06:33:25.962Z,35.90
2022-08-07T06:36:12.082Z,32.17
2022-08-07T06:38:59.214Z,36.63
2022-08-07T06:42:02.110Z,30.73
2022-08-07T06:45:21.096Z,33.88
2022-08-07T06:48:03.080Z,31.90
2022-08-07T06:50:53.498Z,33.75
2022-08-07T06:55:28.516Z,36.55
2022-08-07T06:56:48.432Z,29.80
2022-08-07T07:00:14.843Z,34.50
2022-08-07T07:02:53.764Z,34.42
2022-08-07T07:06:03.579Z,27.80
2022-08-07T07:08:33.167Z,31.58
2022-08-07T07:11:14.534Z,33.63
2022-08-07T07:14:09.899Z,30.83
2022-08-07T07:16:50.797Z,34.90
2022-08-07T07:19:56.480Z,34.38
2022-08-07T07:22:36.787Z,34.03
2022-08-07T07:26:31.583Z,33.08
2022-08-07T07:28:42.436Z,33.50
2022-08-07T07:31:30.482Z,33.85
2022-08-07T07:34:17.029Z,34.67
2022-08-07T07:36:54.117Z,29.83
2022-08-07T07:39:52.198Z,28.48
2022-08-07T07:42:32.914Z,30.40
2022-08-07T07:45:09.634Z,32.22
2022-08-07T07:47:52.534Z,28.60
2022-08-07T07:50:33.877Z,25.50
2022-08-07T07:53:22.980Z,30.83
2022-08-07T07:56:03.897Z,29.08
2022-08-07T07:58:41.196Z,31.60
2022-08-07T08:02:02.512Z,27.77
2022-08-07T08:04:15.547Z,30.85
2022-08-07T08:06:52.368Z,27.70
2022-08-07T08:09:31.248Z,33.03
2022-08-07T08:12:52.725Z,27.73
2022-08-07T08:15:23.271Z,29.95
2022-08-07T08:17:58.818Z,27.75
2022-08-07T08:20:55.527Z,29.40
2022-08-07T08:23:49.286Z,28.42
2022-08-07T08:26:41.409Z,27.58
2022-08-07T08:29:21.367Z,30.00
2022-08-07T08:32:16.960Z,28.70
2022-08-07T08:34:55.421Z,32.55
2022-08-07T08:38:01.362Z,32.53
2022-08-07T08:40:35.236Z,29.75
2022-08-07T08:43:19.384Z,30.08
2022-08-07T08:46:01.042Z,30.27
2022-08-07T08:48:44.433Z,30.45
2022-08-07T08:51:49.667Z,26.55
2022-08-07T08:54:28.542Z,29.63
2022-08-07T08:57:09.371Z,28.38
2022-08-07T08:59:52.087Z,27.83
2022-08-07T09:02:37.589Z,28.42
2022-08-07T09:05:36.794Z,26.60
2022-08-07T09:08:29.553Z,27.65
2022-08-07T09:11:24.667Z,24.95
2022-08-07T09:14:19.216Z,25.25
2022-08-07T09:17:04.680Z,25.40
2022-08-07T09:19:58.120Z,23.25
2022-08-07T09:24:49.081Z,23.67
2022-08-07T09:26:02.437Z,24.65
2022-08-07T09:30:02.402Z,26.15
2022-08-07T09:31:48.741Z,23.30
2022-08-07T09:34:32.078Z,24.90
2022-08-07T09:37:10.781Z,29.45
2022-08-07T09:39:57.937Z,23.73
2022-08-07T09:42:52.691Z,25.05
2022-08-07T09:47:25.850Z,25.13
2022-08-07T09:48:56.175Z,23.70
2022-08-07T09:52:16.113Z,30.05
2022-08-07T09:54:58.281Z,25.40
2022-08-07T09:58:15.815Z,21.17
2022-08-07T10:01:14.741Z,25.08
2022-08-07T10:04:47.563Z,23.23
2022-08-07T10:07:53.040Z,26.50
2022-08-07T10:14:11.292Z,25.23
2022-08-07T10:17:16.696Z,26.27
2022-08-07T10:20:07.982Z,25.40
2022-08-07T10:26:08.999Z,25.90
2022-08-07T10:29:07.694Z,29.52
2022-08-07T10:32:01.677Z,25.08
2022-08-07T10:34:51.112Z,26.33
2022-08-07T10:38:00.281Z,28.75
2022-08-07T10:40:40.278Z,25.17
2022-08-07T10:43:34.637Z,28.08
2022-08-07T10:46:17.757Z,23.33
2022-08-07T10:49:07.652Z,24.27
2022-08-07T10:52:02.292Z,21.38
2022-08-07T10:55:00.872Z,22.30
2022-08-07T10:57:56.026Z,22.52
2022-08-07T11:00:36.498Z,24.73
2022-08-07T11:03:21.667Z,23.73
2022-08-07T11:06:15.763Z,23.85
2022-08-07T11:08:57.225Z,24.45
2022-08-07T11:11:38.394Z,26.05
2022-08-07T11:14:46.080Z,24.48
2022-08-07T11:17:43.252Z,23.08
2022-08-07T11:20:26.538Z,22.35
2022-08-07T11:23:07.347Z,24.13
2022-08-07T11:25:50.339Z,21.75
2022-08-07T11:28:29.450Z,24.48
2022-08-07T11:31:11.424Z,22.75
2022-08-07T11:33:58.750Z,19.35
2022-08-07T11:36:49.654Z,19.77
2022-08-07T11:40:00.156Z,18.95
2022-08-07T11:42:46.640Z,20.98
2022-08-07T11:45:35.928Z,20.40
2022-08-07T11:49:27.819Z,21.95
2022-08-07T11:51:52.209Z,20.52
2022-08-07T11:55:03.834Z,22.80
2022-08-07T11:58:00.185Z,27.58
2022-08-07T12:00:42.125Z,20.48
2022-08-07T12:03:53.716Z,20.40
2022-08-07T12:09:46.587Z,23.65
2022-08-07T12:12:28.340Z,30.15
2022-08-07T12:15:17.055Z,24.20
2022-08-07T12:18:12.892Z,25.48
2022-08-07T12:21:02.160Z,29.90
2022-08-07T12:24:06.047Z,26.25
2022-08-07T12:26:49.594Z,27.20
2022-08-07T12:29:42.511Z,29.10
2022-08-07T12:32:24.634Z,27.02
2022-08-07T12:35:01.111Z,31.35
2022-08-07T12:38:10.169Z,29.38
2022-08-07T12:40:48.130Z,28.30
2022-08-07T12:44:01.576Z,28.58
2022-08-07T12:46:57.230Z,28.10
2022-08-07T12:49:50.951Z,24.63
2022-08-07T12:52:40.496Z,24.17
2022-08-07T12:55:41.114Z,26.45
2022-08-07T12:58:22.100Z,27.95
2022-08-07T13:01:08.187Z,26.60
2022-08-07T13:04:34.010Z,26.23
2022-08-07T13:08:13.609Z,26.50
2022-08-07T13:10:52.483Z,27.73
2022-08-07T13:13:48.182Z,26.60
2022-08-07T13:16:51.403Z,25.98
2022-08-07T13:19:50.316Z,29.55
2022-08-07T13:22:34.966Z,28.20
2022-08-07T13:25:24.168Z,28.95
2022-08-07T13:28:12.576Z,26.23
2022-08-07T13:31:01.747Z,28.85
2022-08-07T13:34:32.973Z,31.33
2022-08-07T13:36:54.126Z,30.65
2022-08-07T13:40:33.028Z,28.25
2022-08-07T13:42:40.564Z,32.05
2022-08-07T13:46:07.402Z,29.83
2022-08-07T13:48:27.399Z,31.08
2022-08-07T13:51:28.040Z,30.80
2022-08-07T13:54:16.429Z,33.25
2022-08-07T13:57:02.275Z,30.80
2022-08-07T13:59:39.628Z,31.33
2022-08-07T14:02:16.814Z,36.45
2022-08-07T14:04:55.725Z,31.17
2022-08-07T14:07:35.727Z,32.60
2022-08-07T14:10:42.071Z,31.73
2022-08-07T14:13:33.554Z,34.38
2022-08-07T14:16:15.250Z,40.80
2022-08-07T14:18:57.143Z,36.38
2022-08-07T14:22:01.246Z,33.20
2022-08-07T14:24:34.557Z,33.17
2022-08-07T14:28:11.392Z,31.58
2022-08-07T14:30:14.323Z,32.40
2022-08-07T14:33:08.595Z,31.80
2022-08-07T14:35:47.686Z,28.20
2022-08-07T14:38:36.188Z,29.88
2022-08-07T14:41:14.756Z,29.92
2022-08-07T14:43:58.550Z,28.95
2022-08-07T14:46:48.664Z,28.27
2022-08-07T14:49:58.254Z,30.65
2022-08-07T14:52:35.984Z,27.20
2022-08-07T14:55:20.518Z,33.30
2022-08-07T14:57:59.128Z,32.50
2022-08-07T15:00:38.439Z,31.13
2022-08-07T15:03:19.198Z,35.42
2022-08-07T15:06:04.085Z,34.38
2022-08-07T15:11:53.227Z,31.45
2022-08-07T15:14:56.081Z,33.92
2022-08-07T15:17:54.964Z,36.50
2022-08-07T15:25:16.168Z,32.78
2022-08-07T15:26:44.261Z,37.10
2022-08-07T15:30:04.651Z,34.50
2022-08-07T15:32:39.386Z,34.67
2022-08-07T15:36:00.587Z,35.67
2022-08-07T15:38:30.426Z,35.78
2022-08-07T15:42:42.501Z,31.48
2022-08-07T15:44:18.290Z,29.90
2022-08-07T15:47:03.383Z,31.33
2022-08-07T15:50:05.154Z,33.30
2022-08-07T15:52:42.725Z,34.10
2022-08-07T15:55:53.796Z,35.92
2022-08-07T15:58:33.040Z,33.05
2022-08-07T16:01:10.449Z,32.72
2022-08-07T16:03:57.953Z,36.00
2022-08-07T16:06:35.355Z,32.33
2022-08-07T16:09:22.816Z,31.65
2022-08-07T16:12:15.159Z,29.05
2022-08-07T16:15:55.641Z,32.67
2022-08-07T16:18:50.454Z,34.17
2022-08-07T16:22:01.578Z,33.15
2022-08-07T16:24:35.259Z,30.60
2022-08-07T16:27:20.984Z,32.10
2022-08-07T16:30:31.926Z,33.13
2022-08-07T16:34:01.508Z,29.80
2022-08-07T16:36:31.209Z,29.98
2022-08-07T16:39:40.656Z,28.83
2022-08-07T16:46:33.208Z,28.13
2022-08-07T16:50:28.131Z,27.45
2022-08-07T16:52:52.808Z,27.08
2022-08-07T16:55:43.777Z,25.30
2022-08-07T16:58:54.297Z,22.92
2022-08-07T17:01:41.325Z,23.35
2022-08-07T17:04:27.329Z,21.85
2022-08-07T17:07:18.256Z,22.23
2022-08-07T17:10:32.769Z,23.58
2022-08-07T17:16:55.952Z,20.15
2022-08-07T17:20:01.913Z,22.50
2022-08-07T17:22:43.764Z,19.88
2022-08-07T17:25:47.729Z,20.50
2022-08-07T17:28:21.012Z,22.45
2022-08-07T17:31:16.157Z,21.13
2022-08-07T17:34:34.800Z,22.75
2022-08-07T17:38:09.472Z,24.10
2022-08-07T17:40:12.176Z,21.08
2022-08-07T17:42:58.524Z,21.48
2022-08-07T17:45:42.623Z,21.35
2022-08-07T17:48:30.437Z,20.25
2022-08-07T17:51:21.592Z,22.45
2022-08-07T17:54:06.100Z,24.27
2022-08-07T17:56:49.751Z,23.40
2022-08-07T17:59:35.396Z,24.42
2022-08-07T18:05:20.905Z,21.00
2022-08-07T18:08:16.456Z,20.88
2022-08-07T18:12:06.542Z,18.92
2022-08-07T18:14:06.623Z,22.02
2022-08-07T18:16:58.240Z,18.92
2022-08-07T18:21:10.626Z,20.02
2022-08-07T18:22:45.746Z,18.15
2022-08-07T18:25:40.178Z,19.63
2022-08-07T18:28:35.372Z,28.13
2022-08-07T18:31:18.512Z,19.02
2022-08-07T18:34:40.827Z,22.30
2022-08-07T18:38:59.084Z,21.15
2022-08-07T18:40:42.305Z,19.83
2022-08-07T18:43:43.443Z,24.85
2022-08-07T18:46:31.697Z,22.35
2022-08-07T18:50:30.966Z,20.17
2022-08-07T18:52:51.824Z,18.05
2022-08-07T18:55:40.296Z,20.92
2022-08-07T18:58:41.512Z,23.88
2022-08-07T19:02:17.546Z,23.13
2022-08-07T19:04:56.096Z,23.42
2022-08-07T19:07:36.711Z,24.33
2022-08-07T19:10:51.708Z,25.55
2022-08-07T19:13:30.677Z,23.95
2022-08-07T19:17:00.625Z,24.05
2022-08-07T19:19:07.823Z,28.42
2022-08-07T19:21:58.579Z,24.67
2022-08-07T19:24:44.878Z,23.40
2022-08-07T19:28:57.982Z,24.40
2022-08-07T19:31:03.464Z,25.55
2022-08-07T19:33:34.806Z,26.55
2022-08-07T19:36:15.044Z,25.52
2022-08-07T19:39:09.146Z,34.28
2022-08-07T19:42:08.124Z,31.00
2022-08-07T19:44:45.823Z,31.40
2022-08-07T19:47:27.038Z,26.60
2022-08-07T19:50:40.678Z,24.38
2022-08-07T19:52:59.382Z,28.10
2022-08-07T19:55:57.626Z,27.00
2022-08-07T19:58:35.963Z,27.52
2022-08-07T20:01:13.959Z,29.00
2022-08-07T20:03:50.545Z,28.60
2022-08-07T20:06:30.723Z,30.08
2022-08-07T20:09:04.889Z,25.17
2022-08-07T20:12:22.879Z,27.92
2022-08-07T20:14:49.699Z,27.92
2022-08-07T20:17:31.385Z,28.15
2022-08-07T20:20:26.294Z,31.25
2022-08-07T20:23:01.538Z,30.05
2022-08-07T20:25:56.033Z,31.08
2022-08-07T20:28:34.044Z,28.30
2022-08-07T20:31:21.694Z,33.25
2022-08-07T20:34:02.352Z,32.57
2022-08-07T20:36:36.510Z,30.77
2022-08-07T20:39:30.933Z,32.75
2022-08-07T20:42:10.171Z,31.47
2022-08-07T20:44:50.301Z,29.98
2022-08-07T20:47:56.363Z,30.30
2022-08-07T20:50:24.645Z,28.13
2022-08-07T20:52:58.558Z,33.30
2022-08-07T20:55:37.171Z,28.33
2022-08-07T20:58:19.423Z,29.87
2022-08-07T21:01:05.003Z,30.83
2022-08-07T21:03:39.588Z,30.92
2022-08-07T21:06:26.135Z,27.90
2022-08-07T21:09:13.817Z,30.13
2022-08-07T21:11:51.498Z,30.53
2022-08-07T21:14:33.435Z,29.15
2022-08-07T21:18:03.508Z,31.92
2022-08-07T21:20:10.227Z,31.17
2022-08-07T21:22:51.195Z,31.48
2022-08-07T21:25:43.976Z,30.42
2022-08-07T21:28:48.148Z,32.17
2022-08-07T21:32:43.096Z,31.03
2022-08-07T21:34:33.761Z,28.45
2022-08-07T21:37:12.721Z,26.70
2022-08-07T21:39:57.362Z,28.42
2022-08-07T21:42:46.476Z,29.23
2022-08-07T21:46:08.451Z,28.53
2022-08-07T21:48:33.551Z,29.70
2022-08-07T21:51:20.133Z,29.55
2022-08-07T21:54:04.859Z,29.23
2022-08-07T21:56:49.225Z,29.90
2022-08-07T22:00:05.099Z,32.92
2022-08-07T22:02:45.437Z,34.50
2022-08-07T22:05:46.098Z,35.28
2022-08-07T22:08:21.334Z,33.60
2022-08-07T22:11:03.981Z,28.05
2022-08-07T22:13:52.809Z,32.95
2022-08-07T22:16:46.249Z,32.80
2022-08-07T22:19:29.989Z,34.38
2022-08-07T22:22:20.810Z,33.70
2022-08-07T22:25:08.202Z,31.05
2022-08-07T22:28:30.115Z,32.87
2022-08-07T22:30:53.070Z,29.00
2022-08-07T22:33:53.638Z,31.10
2022-08-07T22:36:46.656Z,33.90
2022-08-07T22:39:35.214Z,40.67
2022-08-07T22:42:30.521Z,30.88
2022-08-07T22:45:11.006Z,35.33
2022-08-07T22:48:55.038Z,35.30
2022-08-07T22:51:24.581Z,29.38
2022-08-07T22:54:24.302Z,34.28
2022-08-07T22:57:06.461Z,30.13
2022-08-07T22:59:55.964Z,39.88
2022-08-07T23:02:45.398Z,36.90
2022-08-07T23:06:08.681Z,37.72
2022-08-07T23:10:04.435Z,39.08
2022-08-07T23:12:11.119Z,39.78
2022-08-07T23:16:04.951Z,36.40
2022-08-07T23:18:28.880Z,39.95
2022-08-07T23:21:18.231Z,36.83
2022-08-07T23:24:28.675Z,35.22
2022-08-07T23:27:33.220Z,35.38
2022-08-07T23:30:39.408Z,36.25
2022-08-07T23:34:36.601Z,40.08
2022-08-07T23:36:39.485Z,41.38
2022-08-07T23:39:26.121Z,34.80
2022-08-07T23:42:22.770Z,34.70
2022-08-07T23:45:33.507Z,42.38
2022-08-07T23:48:40.346Z,38.92
2022-08-07T23:53:01.039Z,41.35
2022-08-07T23:54:43.804Z,36.25
2022-08-07T23:57:27.586Z,41.97
